createdAt,value
2023-09-05T00:01:55.982Z,100031.00
2023-09-05T00:04:43.418Z,100026.06
2023-09-05T00:07:28.628Z,100038.97
2023-09-05T00:10:13.759Z,100038.78
2023-09-05T00:12:58.714Z,100037.41
2023-09-05T00:15:43.874Z,100038.63
2023-09-05T00:18:28.910Z,100044.16
2023-09-05T00:21:19.159Z,100037.63
2023-09-05T00:24:26.409Z,100034.47
2023-09-05T00:27:12.616Z,100035.25
2023-09-05T00:29:58.084Z,100037.03
2023-09-05T00:32:43.729Z,100039.84
2023-09-05T00:35:30.020Z,100036.63
2023-09-05T00:38:17.821Z,100039.19
2023-09-05T00:41:06.169Z,100036.63
2023-09-05T00:43:51.323Z,100040.19
2023-09-05T00:46:36.641Z,100038.41
2023-09-05T00:49:29.559Z,100036.63
2023-09-05T00:52:15.316Z,100041.19
2023-09-05T00:55:00.447Z,100035.81
2023-09-05T00:57:46.192Z,100041.97
2023-09-05T01:00:31.327Z,100037.81
2023-09-05T01:03:16.720Z,100043.16
2023-09-05T01:06:08.334Z,100034.84
2023-09-05T01:08:58.557Z,100038.81
2023-09-05T01:11:43.943Z,100042.38
2023-09-05T01:14:29.220Z,100038.41
2023-09-05T01:17:14.066Z,100042.41
2023-09-05T01:20:01.510Z,100047.75
2023-09-05T01:23:00.984Z,100049.97
2023-09-05T01:25:46.562Z,100046.78
2023-09-05T01:28:35.770Z,100047.00
2023-09-05T01:31:21.023Z,100040.25
2023-09-05T01:34:05.803Z,100051.56
2023-09-05T01:36:50.624Z,100052.16
2023-09-05T01:39:35.642Z,100058.69
2023-09-05T01:42:20.608Z,100046.03
2023-09-05T01:45:06.221Z,100053.16
2023-09-05T01:47:51.017Z,100050.97
2023-09-05T01:50:35.956Z,100058.31
2023-09-05T01:53:20.974Z,100054.34
2023-09-05T01:56:05.930Z,100051.59
2023-09-05T01:58:52.322Z,100054.38
2023-09-05T02:01:38.232Z,100054.19
2023-09-05T02:04:23.749Z,100056.56
2023-09-05T02:07:09.408Z,100051.81
2023-09-05T02:09:54.533Z,100053.03
2023-09-05T02:12:44.143Z,100056.19
2023-09-05T02:15:28.997Z,100063.13
2023-09-05T02:18:15.235Z,100068.66
2023-09-05T02:21:02.186Z,100062.94
2023-09-05T02:23:47.342Z,100061.94
2023-09-05T02:26:32.272Z,100076.00
2023-09-05T02:29:16.918Z,100077.97
2023-09-05T02:32:03.283Z,100071.44
2023-09-05T02:34:52.779Z,100073.81
2023-09-05T02:37:39.030Z,100081.34
2023-09-05T02:40:24.034Z,100081.53
2023-09-05T02:43:08.875Z,100083.31
2023-09-05T02:45:53.964Z,100077.78
2023-09-05T02:48:41.031Z,100087.69
2023-09-05T02:51:25.869Z,100089.25
2023-09-05T02:54:11.412Z,100087.06
2023-09-05T02:56:56.515Z,100086.09
2023-09-05T02:59:41.429Z,100095.78
2023-09-05T03:02:26.705Z,100088.44
2023-09-05T03:05:14.215Z,100090.78
2023-09-05T03:07:59.080Z,100093.56
2023-09-05T03:10:44.062Z,100091.97
2023-09-05T03:13:29.294Z,100095.34
2023-09-05T03:16:14.774Z,100094.56
2023-09-05T03:19:03.960Z,100099.91
2023-09-05T03:21:49.651Z,100098.94
2023-09-05T03:24:35.356Z,100104.25
2023-09-05T03:27:20.513Z,100103.28
2023-09-05T03:30:06.258Z,100111.16
2023-09-05T03:32:51.111Z,100112.56
2023-09-05T03:35:36.379Z,100107.41
2023-09-05T03:38:21.505Z,100105.03
2023-09-05T03:41:09.568Z,100110.97
2023-09-05T03:43:55.566Z,100108.03
2023-09-05T03:46:40.723Z,100111.81
2023-09-05T03:49:26.101Z,100110.41
2023-09-05T03:52:11.152Z,100106.06
2023-09-05T03:54:56.289Z,100113.78
2023-09-05T03:57:41.022Z,100103.31
2023-09-05T04:00:26.673Z,100110.81
2023-09-05T04:03:13.306Z,100116.94
2023-09-05T04:06:01.553Z,100118.84
2023-09-05T04:08:47.334Z,100117.25
2023-09-05T04:11:32.387Z,100106.22
2023-09-05T04:14:17.294Z,100109.84
2023-09-05T04:17:02.433Z,100110.81
2023-09-05T04:19:52.315Z,100117.38
2023-09-05T04:22:37.152Z,100108.63
2023-09-05T04:25:24.422Z,100110.16
2023-09-05T04:28:09.734Z,100116.88
2023-09-05T04:30:56.249Z,100118.06
2023-09-05T04:33:41.634Z,100117.25
2023-09-05T04:36:27.613Z,100111.91
2023-09-05T04:39:12.545Z,100110.50
2023-09-05T04:41:57.958Z,100105.94
2023-09-05T04:44:42.712Z,100108.13
2023-09-05T04:47:29.634Z,100103.84
2023-09-05T04:50:14.701Z,100098.81
2023-09-05T04:53:00.196Z,100102.88
2023-09-05T04:55:48.173Z,100099.41
2023-09-05T04:58:33.683Z,100087.31
2023-09-05T05:01:18.863Z,100087.16
2023-09-05T05:04:03.898Z,100083.16
2023-09-05T05:06:48.886Z,100090.34
2023-09-05T05:09:34.740Z,100090.63
2023-09-05T05:12:22.001Z,100090.31
2023-09-05T05:15:08.024Z,100097.53
2023-09-05T05:17:53.184Z,100092.81
2023-09-05T05:20:38.434Z,100091.25
2023-09-05T05:23:23.522Z,100094.22
2023-09-05T05:26:08.569Z,100093.16
2023-09-05T05:28:57.767Z,100098.59
2023-09-05T05:31:43.180Z,100096.66
2023-09-05T05:34:28.057Z,100095.53
2023-09-05T05:37:12.987Z,100090.47
2023-09-05T05:39:58.363Z,100098.06
2023-09-05T05:43:19.639Z,100098.78
2023-09-05T05:47:21.892Z,100105.25
2023-09-05T05:53:37.868Z,100111.59
2023-09-05T05:56:22.936Z,100106.78
2023-09-05T06:00:24.687Z,100109.50
2023-09-05T06:06:49.796Z,100092.84
2023-09-05T06:09:34.980Z,100103.94
2023-09-05T06:12:23.379Z,100107.22
2023-09-05T06:15:09.301Z,100101.59
2023-09-05T06:18:00.455Z,100094.66
2023-09-05T06:20:58.341Z,100101.78
2023-09-05T06:23:49.353Z,100092.63
2023-09-05T06:26:34.531Z,100102.25
2023-09-05T06:29:19.798Z,100100.88
2023-09-05T06:32:05.362Z,100092.38
2023-09-05T06:34:51.422Z,100097.25
2023-09-05T06:37:39.734Z,100102.56
2023-09-05T06:40:26.337Z,100092.41
2023-09-05T06:43:11.394Z,100095.63
2023-09-05T06:46:04.220Z,100089.59
2023-09-05T06:48:49.135Z,100087.94
2023-09-05T06:52:24.072Z,100100.06
2023-09-05T06:55:08.943Z,100086.22
2023-09-05T06:57:54.287Z,100084.78
2023-09-05T07:00:40.020Z,100093.16
2023-09-05T07:03:26.303Z,100091.34
2023-09-05T07:06:11.216Z,100089.47
2023-09-05T07:08:56.261Z,100087.28
2023-09-05T07:11:41.335Z,100086.72
2023-09-05T07:14:26.450Z,100089.25
2023-09-05T07:17:20.297Z,100095.69
2023-09-05T07:20:05.927Z,100093.06
2023-09-05T07:22:50.678Z,100090.69
2023-09-05T07:25:39.512Z,100093.50
2023-09-05T07:28:24.740Z,100085.63
2023-09-05T07:31:15.371Z,100087.66
2023-09-05T07:34:00.367Z,100085.16
2023-09-05T07:36:46.199Z,100093.69
2023-09-05T07:39:30.674Z,100087.25
2023-09-05T07:42:15.960Z,100086.06
2023-09-05T07:45:04.334Z,100089.53
2023-09-05T07:47:49.145Z,100091.88
2023-09-05T07:50:35.593Z,100097.78
2023-09-05T07:53:20.221Z,100105.63
2023-09-05T07:56:07.587Z,100097.25
2023-09-05T07:58:52.461Z,100100.94
2023-09-05T08:01:37.953Z,100102.88
2023-09-05T08:04:27.778Z,100105.06
2023-09-05T08:07:13.643Z,100102.16
2023-09-05T08:10:00.956Z,100105.16
2023-09-05T08:12:45.917Z,100094.25
2023-09-05T08:15:31.021Z,100098.00
2023-09-05T08:18:17.272Z,100100.63
2023-09-05T08:21:05.046Z,100100.16
2023-09-05T08:23:50.931Z,100094.41
2023-09-05T08:26:36.917Z,100094.28
2023-09-05T08:29:24.116Z,100081.34
2023-09-05T08:32:09.380Z,100089.78
2023-09-05T08:34:54.890Z,100082.75
2023-09-05T08:38:32.203Z,100089.59
2023-09-05T08:41:17.903Z,100090.69
2023-09-05T08:44:03.989Z,100090.06
2023-09-05T08:46:50.873Z,100091.03
2023-09-05T08:49:37.945Z,100090.06
2023-09-05T08:52:29.734Z,100089.00
2023-09-05T08:55:15.362Z,100074.69
2023-09-05T08:58:01.628Z,100079.59
2023-09-05T09:00:46.867Z,100069.69
2023-09-05T09:03:34.879Z,100067.03
2023-09-05T09:06:26.889Z,100063.34
2023-09-05T09:09:41.659Z,100069.78
2023-09-05T09:12:33.798Z,100071.91
2023-09-05T09:15:18.811Z,100077.16
2023-09-05T09:18:11.906Z,100073.91
2023-09-05T09:20:59.956Z,100074.72
2023-09-05T09:23:45.891Z,100067.56
2023-09-05T09:26:32.986Z,100074.75
2023-09-05T09:29:22.634Z,100079.63
2023-09-05T09:32:07.738Z,100069.66
2023-09-05T09:34:55.672Z,100060.38
2023-09-05T09:37:40.315Z,100060.84
2023-09-05T09:40:25.399Z,100057.88
2023-09-05T09:43:10.296Z,100057.81
2023-09-05T09:45:57.379Z,100052.72
2023-09-05T09:48:45.878Z,100052.31
2023-09-05T09:51:34.398Z,100045.75
2023-09-05T09:54:27.329Z,100047.44
2023-09-05T10:00:09.807Z,100047.09
2023-09-05T10:02:55.869Z,100046.78
2023-09-05T10:09:41.342Z,100031.31
2023-09-05T10:12:26.342Z,100044.28
2023-09-05T10:15:15.970Z,100041.06
2023-09-05T10:18:02.114Z,100026.66
2023-09-05T10:20:56.736Z,100033.50
2023-09-05T10:23:48.148Z,100029.53
2023-09-05T10:26:41.222Z,100032.06
2023-09-05T10:29:45.872Z,100037.03
2023-09-05T10:32:32.638Z,100037.00
2023-09-05T10:35:20.223Z,100037.44
2023-09-05T10:38:06.121Z,100032.78
2023-09-05T10:40:51.087Z,100020.16
2023-09-05T10:43:40.219Z,100022.38
2023-09-05T10:46:26.736Z,100024.78
2023-09-05T10:49:23.865Z,100013.19
2023-09-05T10:52:22.592Z,100014.00
2023-09-05T10:55:29.986Z,100018.25
2023-09-05T10:58:57.198Z,100003.72
2023-09-05T11:01:46.357Z,99997.81
2023-09-05T11:04:32.463Z,100011.91
2023-09-05T11:07:17.764Z,100005.03
2023-09-05T11:10:02.518Z,99991.38
2023-09-05T11:13:49.840Z,99976.31
2023-09-05T11:16:52.732Z,99983.63
2023-09-05T11:19:41.577Z,99991.19
2023-09-05T11:22:28.133Z,99993.78
2023-09-05T11:25:13.610Z,100001.16
2023-09-05T11:28:03.218Z,99996.91
2023-09-05T11:30:48.092Z,100004.31
2023-09-05T11:37:35.505Z,99981.44
2023-09-05T11:40:52.410Z,99973.63
2023-09-05T11:43:53.253Z,99970.72
2023-09-05T11:46:41.860Z,99966.69
2023-09-05T11:49:29.047Z,99955.31
2023-09-05T11:56:56.323Z,99960.41
2023-09-05T11:59:41.608Z,99964.63
2023-09-05T12:02:27.228Z,99959.94
2023-09-05T12:05:15.600Z,99960.19
2023-09-05T12:08:05.049Z,99961.47
2023-09-05T12:10:56.380Z,99953.78
2023-09-05T12:13:51.923Z,99955.13
2023-09-05T12:16:36.600Z,99948.25
2023-09-05T12:19:28.280Z,99941.34
2023-09-05T12:22:30.365Z,99924.59
2023-09-05T12:25:18.740Z,99915.97
2023-09-05T12:28:24.962Z,99917.81
2023-09-05T12:31:14.608Z,99927.63
2023-09-05T12:34:00.387Z,99921.22
2023-09-05T12:36:45.475Z,99918.38
2023-09-05T12:39:30.354Z,99910.38
2023-09-05T12:42:15.466Z,99917.16
2023-09-05T12:45:00.242Z,99925.44
2023-09-05T12:47:51.941Z,99931.66
2023-09-05T12:50:37.799Z,99935.22
2023-09-05T12:53:22.875Z,99922.84
2023-09-05T12:56:09.571Z,99933.38
2023-09-05T12:58:54.836Z,99924.03
2023-09-05T13:01:39.738Z,99919.19
2023-09-05T13:04:24.790Z,99906.41
2023-09-05T13:07:11.413Z,99904.47
2023-09-05T13:09:56.488Z,99898.97
2023-09-05T13:12:41.326Z,99889.47
2023-09-05T13:15:26.134Z,99884.91
2023-09-05T13:18:11.764Z,99886.25
2023-09-05T13:20:56.511Z,99882.63
2023-09-05T13:23:41.787Z,99871.72
2023-09-05T13:26:26.655Z,99878.66
2023-09-05T13:29:11.645Z,99875.44
2023-09-05T13:31:56.810Z,99860.38
2023-09-05T13:34:42.305Z,99867.94
2023-09-05T13:37:27.631Z,99865.00
2023-09-05T13:40:12.537Z,99851.50
2023-09-05T13:42:58.806Z,99854.94
2023-09-05T13:45:43.623Z,99850.59
2023-09-05T13:48:28.692Z,99861.22
2023-09-05T13:51:20.061Z,99855.16
2023-09-05T13:54:08.346Z,99850.84
2023-09-05T13:56:53.321Z,99849.56
2023-09-05T13:59:38.081Z,99852.31
2023-09-05T14:02:23.220Z,99849.50
2023-09-05T14:05:10.860Z,99849.56
2023-09-05T14:07:55.978Z,99851.84
2023-09-05T14:10:41.906Z,99841.56
2023-09-05T14:13:27.002Z,99842.16
2023-09-05T14:16:12.035Z,99838.91
2023-09-05T14:18:57.062Z,99841.16
2023-09-05T14:21:42.118Z,99833.09
2023-09-05T14:24:27.219Z,99834.19
2023-09-05T14:27:12.287Z,99832.63
2023-09-05T14:29:57.119Z,99839.78
2023-09-05T14:32:42.292Z,99843.28
2023-09-05T14:35:27.172Z,99846.75
2023-09-05T14:38:12.286Z,99849.25
2023-09-05T14:40:58.704Z,99850.03
2023-09-05T14:43:43.480Z,99840.75
2023-09-05T14:46:28.292Z,99835.34
2023-09-05T14:49:13.901Z,99834.41
2023-09-05T14:51:58.742Z,99835.16
2023-09-05T14:54:43.871Z,99833.41
2023-09-05T14:57:28.968Z,99837.44
2023-09-05T15:00:14.577Z,99835.75
2023-09-05T15:02:59.726Z,99837.72
2023-09-05T15:05:44.756Z,99832.97
2023-09-05T15:08:29.671Z,99835.25
2023-09-05T15:11:14.407Z,99837.41
2023-09-05T15:13:59.465Z,99836.19
2023-09-05T15:16:45.894Z,99829.13
2023-09-05T15:19:31.895Z,99826.72
2023-09-05T15:22:16.563Z,99822.53
2023-09-05T15:25:15.474Z,99817.13
2023-09-05T15:28:00.609Z,99811.69
2023-09-05T15:30:45.664Z,99811.00
2023-09-05T15:33:30.905Z,99816.09
2023-09-05T15:36:15.829Z,99813.56
2023-09-05T15:39:01.264Z,99816.38
2023-09-05T15:41:45.893Z,99818.66
2023-09-05T15:44:32.383Z,99820.88
2023-09-05T15:47:16.961Z,99807.47
2023-09-05T15:50:03.148Z,99814.31
2023-09-05T15:52:48.189Z,99807.97
2023-09-05T15:55:32.709Z,99816.53
2023-09-05T15:58:18.100Z,99810.75
2023-09-05T16:01:03.430Z,99822.50
2023-09-05T16:03:49.086Z,99821.09
2023-09-05T16:06:34.041Z,99815.00
2023-09-05T16:09:20.756Z,99821.63
2023-09-05T16:12:06.115Z,99822.34
2023-09-05T16:14:51.428Z,99822.91
2023-09-05T16:17:36.594Z,99821.41
2023-09-05T16:20:21.548Z,99826.91
2023-09-05T16:23:06.531Z,99825.03
2023-09-05T16:25:51.571Z,99827.94
2023-09-05T16:28:38.171Z,99828.25
2023-09-05T16:31:24.087Z,99834.16
2023-09-05T16:34:09.326Z,99835.44
2023-09-05T16:36:54.093Z,99822.13
2023-09-05T16:39:42.650Z,99832.28
2023-09-05T16:42:27.753Z,99830.53
2023-09-05T16:45:12.542Z,99830.66
2023-09-05T16:47:57.365Z,99840.69
2023-09-05T16:50:43.457Z,99836.56
2023-09-05T16:53:28.718Z,99830.94
2023-09-05T16:56:17.611Z,99843.34
2023-09-05T16:59:02.400Z,99840.56
2023-09-05T17:01:47.303Z,99848.16
2023-09-05T17:04:32.464Z,99848.97
2023-09-05T17:07:21.184Z,99852.88
2023-09-05T17:10:06.674Z,99855.50
2023-09-05T17:12:51.440Z,99856.00
2023-09-05T17:15:37.341Z,99851.03
2023-09-05T17:18:22.171Z,99853.38
2023-09-05T17:21:07.467Z,99855.19
2023-09-05T17:23:52.024Z,99847.81
2023-09-05T17:26:37.612Z,99849.59
2023-09-05T17:29:22.516Z,99848.28
2023-09-05T17:32:07.396Z,99849.53
2023-09-05T17:34:52.800Z,99860.41
2023-09-05T17:37:40.680Z,99856.75
2023-09-05T17:40:25.499Z,99856.97
2023-09-05T17:43:10.888Z,99854.06
2023-09-05T17:45:55.953Z,99859.47
2023-09-05T17:48:41.216Z,99851.84
2023-09-05T17:51:25.984Z,99860.59
2023-09-05T17:54:10.743Z,99859.00
2023-09-05T17:56:55.453Z,99857.13
2023-09-05T17:59:41.438Z,99855.00
2023-09-05T18:02:26.528Z,99850.50
2023-09-05T18:05:11.745Z,99858.25
2023-09-05T18:07:56.625Z,99859.75
2023-09-05T18:10:42.878Z,99864.06
2023-09-05T18:13:27.697Z,99860.63
2023-09-05T18:16:14.562Z,99853.06
2023-09-05T18:18:59.918Z,99857.41
2023-09-05T18:21:45.852Z,99857.84
2023-09-05T18:24:32.870Z,99855.44
2023-09-05T18:27:17.646Z,99858.78
2023-09-05T18:30:03.130Z,99854.78
2023-09-05T18:32:52.041Z,99853.13
2023-09-05T18:35:37.374Z,99858.03
2023-09-05T18:38:22.695Z,99861.34
2023-09-05T18:41:14.882Z,99862.34
2023-09-05T18:43:59.700Z,99855.25
2023-09-05T18:46:44.768Z,99851.81
2023-09-05T18:49:34.275Z,99854.19
2023-09-05T18:52:19.069Z,99847.41
2023-09-05T18:55:04.437Z,99844.53
2023-09-05T18:57:49.024Z,99841.03
2023-09-05T19:00:34.389Z,99844.31
2023-09-05T19:03:19.531Z,99841.66
2023-09-05T19:06:04.341Z,99839.53
2023-09-05T19:08:49.100Z,99839.47
2023-09-05T19:11:33.943Z,99839.19
2023-09-05T19:14:18.868Z,99841.00
2023-09-05T19:17:04.337Z,99835.19
2023-09-05T19:19:49.714Z,99844.47
2023-09-05T19:22:35.380Z,99836.16
2023-09-05T19:25:20.234Z,99850.59
2023-09-05T19:28:05.766Z,99837.56
2023-09-05T19:30:50.590Z,99846.47
2023-09-05T19:33:35.330Z,99845.78
2023-09-05T19:36:20.184Z,99838.91
2023-09-05T19:39:05.495Z,99854.94
2023-09-05T19:41:50.153Z,99851.47
2023-09-05T19:44:35.136Z,99843.31
2023-09-05T19:47:20.093Z,99851.25
2023-09-05T19:50:06.990Z,99847.22
2023-09-05T19:52:51.644Z,99850.19
2023-09-05T19:55:36.630Z,99843.84
2023-09-05T19:58:21.522Z,99847.56
2023-09-05T20:01:07.329Z,99850.41
2023-09-05T20:03:52.358Z,99844.88
2023-09-05T20:06:38.576Z,99845.25
2023-09-05T20:09:23.410Z,99852.63
2023-09-05T20:12:08.810Z,99855.91
2023-09-05T20:14:53.550Z,99851.41
2023-09-05T20:17:38.720Z,99853.91
2023-09-05T20:20:25.365Z,99848.09
2023-09-05T20:23:10.005Z,99852.94
2023-09-05T20:25:55.442Z,99851.38
2023-09-05T20:28:40.474Z,99859.81
2023-09-05T20:31:26.626Z,99858.91
2023-09-05T20:34:12.815Z,99860.75
2023-09-05T20:36:57.545Z,99860.41
2023-09-05T20:39:42.360Z,99859.06
2023-09-05T20:42:27.486Z,99851.72
2023-09-05T20:45:12.950Z,99857.72
2023-09-05T20:47:57.848Z,99851.94
2023-09-05T20:50:42.898Z,99854.44
2023-09-05T20:53:28.268Z,99852.50
2023-09-05T20:56:13.966Z,99854.00
2023-09-05T20:58:58.922Z,99857.47
2023-09-05T21:01:44.061Z,99859.97
2023-09-05T21:04:32.196Z,99862.69
2023-09-05T21:07:17.473Z,99867.50
2023-09-05T21:10:04.256Z,99859.41
2023-09-05T21:12:49.087Z,99863.91
2023-09-05T21:15:34.082Z,99865.81
2023-09-05T21:18:19.092Z,99861.28
2023-09-05T21:21:08.190Z,99866.34
2023-09-05T21:23:53.129Z,99859.72
2023-09-05T21:26:38.077Z,99865.13
2023-09-05T21:29:23.779Z,99874.13
2023-09-05T21:32:10.266Z,99876.00
2023-09-05T21:34:55.034Z,99869.94
2023-09-05T21:37:40.135Z,99874.53
2023-09-05T21:40:25.126Z,99879.25
2023-09-05T21:43:10.546Z,99881.84
2023-09-05T21:45:55.978Z,99875.44
2023-09-05T21:48:40.811Z,99884.78
2023-09-05T21:51:25.897Z,99870.63
2023-09-05T21:54:10.780Z,99872.84
2023-09-05T21:56:55.869Z,99883.41
2023-09-05T21:59:40.467Z,99887.25
2023-09-05T22:02:26.180Z,99884.28
2023-09-05T22:05:11.547Z,99882.16
2023-09-05T22:07:59.592Z,99883.25
2023-09-05T22:10:44.685Z,99886.94
2023-09-05T22:13:29.548Z,99880.41
2023-09-05T22:16:14.679Z,99888.63
2023-09-05T22:19:19.052Z,99888.06
2023-09-05T22:22:04.499Z,99892.84
2023-09-05T22:24:50.456Z,99886.75
2023-09-05T22:27:36.131Z,99897.09
2023-09-05T22:30:20.999Z,99886.75
2023-09-05T22:33:08.238Z,99888.78
2023-09-05T22:35:53.334Z,99896.19
2023-09-05T22:38:38.033Z,99901.00
2023-09-05T22:41:24.111Z,99897.47
2023-09-05T22:44:09.027Z,99900.47
2023-09-05T22:46:53.906Z,99902.63
2023-09-05T22:49:39.194Z,99906.00
2023-09-05T22:52:24.202Z,99900.25
2023-09-05T22:55:09.232Z,99907.78
2023-09-05T22:57:54.280Z,99899.25
2023-09-05T23:00:39.166Z,99888.00
2023-09-05T23:03:25.475Z,99895.41
2023-09-05T23:06:14.020Z,99889.66
2023-09-05T23:08:58.945Z,99891.09
2023-09-05T23:11:43.832Z,99887.97
2023-09-05T23:14:28.899Z,99885.25
2023-09-05T23:17:14.681Z,99877.13
2023-09-05T23:19:59.498Z,99878.34
2023-09-05T23:22:44.481Z,99874.41
2023-09-05T23:25:29.833Z,99879.00
2023-09-05T23:28:14.514Z,99871.69
2023-09-05T23:31:00.355Z,99877.47
2023-09-05T23:33:46.597Z,99875.13
2023-09-05T23:36:31.742Z,99873.75
2023-09-05T23:39:16.656Z,99872.97
2023-09-05T23:42:01.873Z,99869.47
2023-09-05T23:44:47.006Z,99873.84
2023-09-05T23:47:31.938Z,99865.50
2023-09-05T23:50:19.184Z,99862.59
2023-09-05T23:53:04.440Z,99865.19
2023-09-05T23:55:50.020Z,99869.97
2023-09-05T23:58:34.744Z,99866.81
